sensor_id;sensor_type;location;lat;lon;timestamp;P1;durP1;ratioP1;P2;durP2;ratioP2
59516;SDS011;45342;42.662;27.718;2023-02-07T00:00:36;14.45;;;8.02;;
59516;SDS011;45342;42.662;27.718;2023-02-07T00:03:01;14.88;;;7.82;;
59516;SDS011;45342;42.662;27.718;2023-02-07T00:05:27;16.08;;;7.95;;
59516;SDS011;45342;42.662;27.718;2023-02-07T00:07:53;16.35;;;8.05;;
59516;SDS011;45342;42.662;27.718;2023-02-07T00:10:19;16.25;;;8.25;;
59516;SDS011;45342;42.662;27.718;2023-02-07T00:12:45;17.58;;;8.38;;
59516;SDS011;45342;42.662;27.718;2023-02-07T00:15:10;18.38;;;8.25;;
59516;SDS011;45342;42.662;27.718;2023-02-07T00:17:36;13.90;;;8.20;;
59516;SDS011;45342;42.662;27.718;2023-02-07T00:20:02;16.05;;;8.55;;
59516;SDS011;45342;42.662;27.718;2023-02-07T00:24:54;15.95;;;8.38;;
59516;SDS011;45342;42.662;27.718;2023-02-07T00:27:20;15.93;;;8.65;;
59516;SDS011;45342;42.662;27.718;2023-02-07T00:29:46;15.90;;;8.93;;
59516;SDS011;45342;42.662;27.718;2023-02-07T00:32:11;16.90;;;8.70;;
59516;SDS011;45342;42.662;27.718;2023-02-07T00:34:37;18.33;;;8.80;;
59516;SDS011;45342;42.662;27.718;2023-02-07T00:37:03;17.23;;;8.73;;
59516;SDS011;45342;42.662;27.718;2023-02-07T00:41:54;19.08;;;8.23;;
59516;SDS011;45342;42.662;27.718;2023-02-07T00:44:20;17.23;;;8.23;;
59516;SDS011;45342;42.662;27.718;2023-02-07T00:46:46;16.15;;;7.95;;
59516;SDS011;45342;42.662;27.718;2023-02-07T00:49:11;14.55;;;8.32;;
59516;SDS011;45342;42.662;27.718;2023-02-07T00:51:37;16.42;;;8.77;;
59516;SDS011;45342;42.662;27.718;2023-02-07T00:54:03;14.48;;;7.82;;
59516;SDS011;45342;42.662;27.718;2023-02-07T00:56:29;16.73;;;8.35;;
59516;SDS011;45342;42.662;27.718;2023-02-07T00:58:56;15.82;;;8.30;;
59516;SDS011;45342;42.662;27.718;2023-02-07T01:01:22;16.98;;;8.05;;
59516;SDS011;45342;42.662;27.718;2023-02-07T01:03:48;16.65;;;8.35;;
59516;SDS011;45342;42.662;27.718;2023-02-07T01:08:40;17.55;;;8.98;;
59516;SDS011;45342;42.662;27.718;2023-02-07T01:11:08;16.17;;;8.35;;
59516;SDS011;45342;42.662;27.718;2023-02-07T01:13:35;16.63;;;7.90;;
59516;SDS011;45342;42.662;27.718;2023-02-07T01:16:01;15.73;;;7.95;;
59516;SDS011;45342;42.662;27.718;2023-02-07T01:18:27;14.98;;;8.15;;
59516;SDS011;45342;42.662;27.718;2023-02-07T01:20:53;18.00;;;8.23;;
59516;SDS011;45342;42.662;27.718;2023-02-07T01:23:18;16.13;;;8.48;;
59516;SDS011;45342;42.662;27.718;2023-02-07T01:25:44;17.75;;;9.02;;
59516;SDS011;45342;42.662;27.718;2023-02-07T01:28:11;16.73;;;9.07;;
59516;SDS011;45342;42.662;27.718;2023-02-07T01:30:38;18.30;;;8.95;;
59516;SDS011;45342;42.662;27.718;2023-02-07T01:33:07;17.13;;;9.07;;
59516;SDS011;45342;42.662;27.718;2023-02-07T01:35:33;13.40;;;7.95;;
59516;SDS011;45342;42.662;27.718;2023-02-07T01:37:59;16.00;;;8.40;;
59516;SDS011;45342;42.662;27.718;2023-02-07T01:40:27;16.65;;;9.20;;
59516;SDS011;45342;42.662;27.718;2023-02-07T01:42:53;16.00;;;8.23;;
59516;SDS011;45342;42.662;27.718;2023-02-07T01:48:04;14.50;;;8.13;;
59516;SDS011;45342;42.662;27.718;2023-02-07T01:50:31;15.52;;;8.13;;
59516;SDS011;45342;42.662;27.718;2023-02-07T01:52:58;18.45;;;8.35;;
59516;SDS011;45342;42.662;27.718;2023-02-07T01:55:27;16.92;;;8.70;;
59516;SDS011;45342;42.662;27.718;2023-02-07T01:57:55;17.63;;;8.50;;
59516;SDS011;45342;42.662;27.718;2023-02-07T02:00:21;15.57;;;9.00;;
59516;SDS011;45342;42.662;27.718;2023-02-07T02:02:48;17.13;;;8.77;;
59516;SDS011;45342;42.662;27.718;2023-02-07T02:05:15;16.85;;;8.55;;
59516;SDS011;45342;42.662;27.718;2023-02-07T02:07:42;17.52;;;8.63;;
59516;SDS011;45342;42.662;27.718;2023-02-07T02:10:18;19.27;;;9.00;;
59516;SDS011;45342;42.662;27.718;2023-02-07T02:42:24;18.85;;;9.05;;
59516;SDS011;45342;42.662;27.718;2023-02-07T02:47:32;21.05;;;9.43;;
59516;SDS011;45342;42.662;27.718;2023-02-07T02:50:00;20.15;;;9.13;;
59516;SDS011;45342;42.662;27.718;2023-02-07T02:52:26;18.85;;;9.20;;
59516;SDS011;45342;42.662;27.718;2023-02-07T02:54:54;18.08;;;9.40;;
59516;SDS011;45342;42.662;27.718;2023-02-07T03:03:32;18.20;;;8.95;;
59516;SDS011;45342;42.662;27.718;2023-02-07T03:13:22;20.10;;;9.38;;
59516;SDS011;45342;42.662;27.718;2023-02-07T03:18:30;18.50;;;9.30;;
59516;SDS011;45342;42.662;27.718;2023-02-07T03:21:40;17.38;;;8.95;;
59516;SDS011;45342;42.662;27.718;2023-02-07T03:24:34;19.42;;;9.23;;
59516;SDS011;45342;42.662;27.718;2023-02-07T03:27:10;19.60;;;9.55;;
59516;SDS011;45342;42.662;27.718;2023-02-07T03:29:37;19.77;;;9.52;;
59516;SDS011;45342;42.662;27.718;2023-02-07T03:32:05;19.15;;;8.73;;
59516;SDS011;45342;42.662;27.718;2023-02-07T03:34:33;16.92;;;9.82;;
59516;SDS011;45342;42.662;27.718;2023-02-07T03:37:03;18.88;;;9.48;;
59516;SDS011;45342;42.662;27.718;2023-02-07T03:39:33;18.02;;;9.57;;
59516;SDS011;45342;42.662;27.718;2023-02-07T03:42:00;21.05;;;10.07;;
59516;SDS011;45342;42.662;27.718;2023-02-07T03:44:28;18.60;;;9.38;;
59516;SDS011;45342;42.662;27.718;2023-02-07T03:46:55;16.42;;;9.00;;
59516;SDS011;45342;42.662;27.718;2023-02-07T03:49:20;15.88;;;8.60;;
59516;SDS011;45342;42.662;27.718;2023-02-07T03:51:46;18.30;;;9.20;;
59516;SDS011;45342;42.662;27.718;2023-02-07T03:54:12;17.60;;;9.05;;
59516;SDS011;45342;42.662;27.718;2023-02-07T03:56:40;20.33;;;10.13;;
59516;SDS011;45342;42.662;27.718;2023-02-07T03:59:05;17.73;;;9.15;;
59516;SDS011;45342;42.662;27.718;2023-02-07T04:01:32;18.38;;;9.18;;
59516;SDS011;45342;42.662;27.718;2023-02-07T04:03:59;20.23;;;9.57;;
59516;SDS011;45342;42.662;27.718;2023-02-07T04:06:24;18.05;;;8.85;;
59516;SDS011;45342;42.662;27.718;2023-02-07T04:08:50;17.85;;;9.02;;
59516;SDS011;45342;42.662;27.718;2023-02-07T04:11:15;18.20;;;9.48;;
59516;SDS011;45342;42.662;27.718;2023-02-07T04:13:42;17.55;;;8.90;;
59516;SDS011;45342;42.662;27.718;2023-02-07T04:16:08;16.15;;;8.50;;
59516;SDS011;45342;42.662;27.718;2023-02-07T04:18:33;17.52;;;8.40;;
59516;SDS011;45342;42.662;27.718;2023-02-07T04:20:59;17.40;;;8.73;;
59516;SDS011;45342;42.662;27.718;2023-02-07T04:23:29;18.63;;;8.95;;
59516;SDS011;45342;42.662;27.718;2023-02-07T04:25:55;18.08;;;9.15;;
59516;SDS011;45342;42.662;27.718;2023-02-07T04:28:20;19.33;;;8.85;;
59516;SDS011;45342;42.662;27.718;2023-02-07T04:30:46;17.48;;;8.82;;
59516;SDS011;45342;42.662;27.718;2023-02-07T04:33:12;19.90;;;9.63;;
59516;SDS011;45342;42.662;27.718;2023-02-07T04:35:37;16.80;;;8.13;;
59516;SDS011;45342;42.662;27.718;2023-02-07T04:38:04;16.42;;;8.13;;
59516;SDS011;45342;42.662;27.718;2023-02-07T04:40:29;18.45;;;8.75;;
59516;SDS011;45342;42.662;27.718;2023-02-07T04:42:55;19.95;;;9.40;;
59516;SDS011;45342;42.662;27.718;2023-02-07T04:45:20;19.55;;;9.45;;
59516;SDS011;45342;42.662;27.718;2023-02-07T04:47:46;14.38;;;8.60;;
59516;SDS011;45342;42.662;27.718;2023-02-07T04:50:12;21.33;;;8.88;;
59516;SDS011;45342;42.662;27.718;2023-02-07T04:52:37;16.67;;;8.55;;
59516;SDS011;45342;42.662;27.718;2023-02-07T04:55:05;18.08;;;8.77;;
59516;SDS011;45342;42.662;27.718;2023-02-07T04:57:32;18.20;;;9.13;;
59516;SDS011;45342;42.662;27.718;2023-02-07T04:59:57;15.23;;;8.48;;
59516;SDS011;45342;42.662;27.718;2023-02-07T05:02:23;20.02;;;8.30;;
59516;SDS011;45342;42.662;27.718;2023-02-07T05:04:49;19.60;;;9.57;;
59516;SDS011;45342;42.662;27.718;2023-02-07T05:07:14;16.98;;;8.23;;
59516;SDS011;45342;42.662;27.718;2023-02-07T05:09:41;16.63;;;8.57;;
59516;SDS011;45342;42.662;27.718;2023-02-07T05:12:06;16.25;;;8.55;;
59516;SDS011;45342;42.662;27.718;2023-02-07T05:14:32;17.67;;;8.82;;
59516;SDS011;45342;42.662;27.718;2023-02-07T05:16:58;22.27;;;9.48;;
59516;SDS011;45342;42.662;27.718;2023-02-07T05:19:23;20.10;;;9.35;;
59516;SDS011;45342;42.662;27.718;2023-02-07T05:21:49;19.70;;;9.65;;
59516;SDS011;45342;42.662;27.718;2023-02-07T05:24:15;18.30;;;8.23;;
59516;SDS011;45342;42.662;27.718;2023-02-07T05:26:40;16.95;;;9.32;;
59516;SDS011;45342;42.662;27.718;2023-02-07T05:29:06;21.38;;;9.70;;
59516;SDS011;45342;42.662;27.718;2023-02-07T05:31:31;24.10;;;9.70;;
59516;SDS011;45342;42.662;27.718;2023-02-07T05:34:15;18.05;;;8.73;;
59516;SDS011;45342;42.662;27.718;2023-02-07T05:36:41;19.05;;;9.05;;
59516;SDS011;45342;42.662;27.718;2023-02-07T05:39:06;20.40;;;9.35;;
59516;SDS011;45342;42.662;27.718;2023-02-07T05:41:32;17.85;;;9.20;;
59516;SDS011;45342;42.662;27.718;2023-02-07T05:43:57;17.98;;;9.48;;
59516;SDS011;45342;42.662;27.718;2023-02-07T05:46:23;19.50;;;8.90;;
59516;SDS011;45342;42.662;27.718;2023-02-07T05:48:48;19.23;;;9.32;;
59516;SDS011;45342;42.662;27.718;2023-02-07T05:51:14;19.00;;;9.63;;
59516;SDS011;45342;42.662;27.718;2023-02-07T05:53:40;18.92;;;9.57;;
59516;SDS011;45342;42.662;27.718;2023-02-07T05:56:06;20.60;;;9.70;;
59516;SDS011;45342;42.662;27.718;2023-02-07T05:58:32;20.85;;;9.38;;
59516;SDS011;45342;42.662;27.718;2023-02-07T06:00:58;20.35;;;9.20;;
59516;SDS011;45342;42.662;27.718;2023-02-07T06:03:23;18.70;;;9.05;;
59516;SDS011;45342;42.662;27.718;2023-02-07T06:05:50;18.00;;;9.07;;
59516;SDS011;45342;42.662;27.718;2023-02-07T06:08:15;20.10;;;9.52;;
59516;SDS011;45342;42.662;27.718;2023-02-07T06:10:41;18.48;;;8.70;;
59516;SDS011;45342;42.662;27.718;2023-02-07T06:13:06;17.15;;;8.82;;
59516;SDS011;45342;42.662;27.718;2023-02-07T06:15:32;19.42;;;9.48;;
59516;SDS011;45342;42.662;27.718;2023-02-07T06:17:58;18.88;;;9.25;;
59516;SDS011;45342;42.662;27.718;2023-02-07T06:20:23;19.52;;;8.98;;
59516;SDS011;45342;42.662;27.718;2023-02-07T06:22:49;16.63;;;8.87;;
59516;SDS011;45342;42.662;27.718;2023-02-07T06:25:14;20.25;;;8.68;;
59516;SDS011;45342;42.662;27.718;2023-02-07T06:27:40;17.15;;;8.75;;
59516;SDS011;45342;42.662;27.718;2023-02-07T06:30:07;19.35;;;9.23;;
59516;SDS011;45342;42.662;27.718;2023-02-07T06:32:34;18.60;;;9.13;;
59516;SDS011;45342;42.662;27.718;2023-02-07T06:35:00;20.42;;;9.25;;
59516;SDS011;45342;42.662;27.718;2023-02-07T06:37:25;16.67;;;8.60;;
59516;SDS011;45342;42.662;27.718;2023-02-07T06:39:51;17.23;;;8.15;;
59516;SDS011;45342;42.662;27.718;2023-02-07T06:42:16;17.83;;;8.45;;
59516;SDS011;45342;42.662;27.718;2023-02-07T06:44:42;16.13;;;8.75;;
59516;SDS011;45342;42.662;27.718;2023-02-07T06:47:08;17.42;;;8.07;;
59516;SDS011;45342;42.662;27.718;2023-02-07T06:49:33;15.63;;;8.43;;
59516;SDS011;45342;42.662;27.718;2023-02-07T06:51:59;14.70;;;7.95;;
59516;SDS011;45342;42.662;27.718;2023-02-07T06:54:24;18.25;;;8.30;;
59516;SDS011;45342;42.662;27.718;2023-02-07T06:56:50;14.98;;;8.40;;
59516;SDS011;45342;42.662;27.718;2023-02-07T06:59:15;18.90;;;8.57;;
59516;SDS011;45342;42.662;27.718;2023-02-07T07:01:41;17.80;;;8.35;;
59516;SDS011;45342;42.662;27.718;2023-02-07T07:04:06;16.90;;;8.57;;
59516;SDS011;45342;42.662;27.718;2023-02-07T07:06:32;14.40;;;8.20;;
59516;SDS011;45342;42.662;27.718;2023-02-07T07:09:02;16.90;;;8.82;;
59516;SDS011;45342;42.662;27.718;2023-02-07T07:11:28;15.32;;;8.25;;
59516;SDS011;45342;42.662;27.718;2023-02-07T07:13:53;13.70;;;7.60;;
59516;SDS011;45342;42.662;27.718;2023-02-07T07:16:19;16.55;;;7.68;;
59516;SDS011;45342;42.662;27.718;2023-02-07T07:18:44;17.17;;;8.27;;
59516;SDS011;45342;42.662;27.718;2023-02-07T07:21:11;17.70;;;8.45;;
59516;SDS011;45342;42.662;27.718;2023-02-07T07:23:38;17.67;;;7.85;;
59516;SDS011;45342;42.662;27.718;2023-02-07T07:26:04;15.27;;;8.05;;
59516;SDS011;45342;42.662;27.718;2023-02-07T07:28:29;16.73;;;8.60;;
59516;SDS011;45342;42.662;27.718;2023-02-07T07:31:00;16.55;;;8.65;;
59516;SDS011;45342;42.662;27.718;2023-02-07T07:33:29;15.38;;;8.23;;
59516;SDS011;45342;42.662;27.718;2023-02-07T07:35:58;16.77;;;8.30;;
59516;SDS011;45342;42.662;27.718;2023-02-07T07:38:25;14.50;;;7.80;;
59516;SDS011;45342;42.662;27.718;2023-02-07T07:40:51;16.58;;;8.25;;
59516;SDS011;45342;42.662;27.718;2023-02-07T07:43:17;16.08;;;8.55;;
59516;SDS011;45342;42.662;27.718;2023-02-07T07:45:50;16.13;;;8.13;;
59516;SDS011;45342;42.662;27.718;2023-02-07T07:48:17;18.65;;;8.55;;
59516;SDS011;45342;42.662;27.718;2023-02-07T07:50:43;17.75;;;8.27;;
59516;SDS011;45342;42.662;27.718;2023-02-07T07:53:10;16.45;;;8.15;;
59516;SDS011;45342;42.662;27.718;2023-02-07T07:55:37;17.17;;;9.00;;
59516;SDS011;45342;42.662;27.718;2023-02-07T07:58:06;16.27;;;8.65;;
59516;SDS011;45342;42.662;27.718;2023-02-07T08:00:33;16.42;;;8.38;;
59516;SDS011;45342;42.662;27.718;2023-02-07T08:02:58;17.05;;;9.32;;
59516;SDS011;45342;42.662;27.718;2023-02-07T08:05:25;17.83;;;8.85;;
59516;SDS011;45342;42.662;27.718;2023-02-07T08:07:54;15.25;;;8.52;;
59516;SDS011;45342;42.662;27.718;2023-02-07T08:10:20;17.55;;;8.70;;
59516;SDS011;45342;42.662;27.718;2023-02-07T08:12:45;16.05;;;8.27;;
59516;SDS011;45342;42.662;27.718;2023-02-07T08:15:12;16.95;;;9.07;;
59516;SDS011;45342;42.662;27.718;2023-02-07T08:17:38;16.88;;;8.10;;
59516;SDS011;45342;42.662;27.718;2023-02-07T08:20:04;17.20;;;8.00;;
59516;SDS011;45342;42.662;27.718;2023-02-07T08:22:30;14.65;;;7.82;;
59516;SDS011;45342;42.662;27.718;2023-02-07T08:24:56;14.63;;;7.75;;
59516;SDS011;45342;42.662;27.718;2023-02-07T08:27:22;17.58;;;9.02;;
59516;SDS011;45342;42.662;27.718;2023-02-07T08:29:47;14.95;;;8.40;;
59516;SDS011;45342;42.662;27.718;2023-02-07T08:32:13;15.45;;;8.60;;
59516;SDS011;45342;42.662;27.718;2023-02-07T08:34:38;17.08;;;7.95;;
59516;SDS011;45342;42.662;27.718;2023-02-07T08:37:05;17.63;;;8.38;;
59516;SDS011;45342;42.662;27.718;2023-02-07T08:39:31;15.90;;;8.13;;
59516;SDS011;45342;42.662;27.718;2023-02-07T08:41:56;14.88;;;8.18;;
59516;SDS011;45342;42.662;27.718;2023-02-07T08:47:08;16.50;;;8.25;;
59516;SDS011;45342;42.662;27.718;2023-02-07T08:49:34;16.10;;;8.07;;
59516;SDS011;45342;42.662;27.718;2023-02-07T08:52:10;14.38;;;8.30;;
59516;SDS011;45342;42.662;27.718;2023-02-07T08:54:36;14.85;;;8.45;;
59516;SDS011;45342;42.662;27.718;2023-02-07T08:57:02;17.80;;;8.52;;
59516;SDS011;45342;42.662;27.718;2023-02-07T08:59:28;14.05;;;7.97;;
59516;SDS011;45342;42.662;27.718;2023-02-07T09:01:54;16.15;;;8.15;;
59516;SDS011;45342;42.662;27.718;2023-02-07T09:04:20;15.35;;;8.60;;
59516;SDS011;45342;42.662;27.718;2023-02-07T09:06:45;17.23;;;8.75;;
59516;SDS011;45342;42.662;27.718;2023-02-07T09:09:11;14.98;;;8.25;;
59516;SDS011;45342;42.662;27.718;2023-02-07T09:11:37;12.52;;;8.00;;
59516;SDS011;45342;42.662;27.718;2023-02-07T09:14:03;14.77;;;8.60;;
59516;SDS011;45342;42.662;27.718;2023-02-07T09:16:30;15.13;;;8.43;;
59516;SDS011;45342;42.662;27.718;2023-02-07T09:18:56;16.52;;;8.35;;
59516;SDS011;45342;42.662;27.718;2023-02-07T09:21:26;14.93;;;7.95;;
59516;SDS011;45342;42.662;27.718;2023-02-07T09:23:52;15.43;;;8.02;;
59516;SDS011;45342;42.662;27.718;2023-02-07T09:26:19;14.93;;;8.02;;
59516;SDS011;45342;42.662;27.718;2023-02-07T09:28:46;14.20;;;7.90;;
59516;SDS011;45342;42.662;27.718;2023-02-07T09:31:13;15.80;;;8.45;;
59516;SDS011;45342;42.662;27.718;2023-02-07T09:33:40;15.43;;;8.05;;
59516;SDS011;45342;42.662;27.718;2023-02-07T09:36:14;14.32;;;8.13;;
59516;SDS011;45342;42.662;27.718;2023-02-07T09:38:48;12.98;;;7.80;;
59516;SDS011;45342;42.662;27.718;2023-02-07T09:47:13;15.05;;;8.20;;
59516;SDS011;45342;42.662;27.718;2023-02-07T09:52:16;14.38;;;7.78;;
59516;SDS011;45342;42.662;27.718;2023-02-07T09:54:45;15.38;;;8.27;;
59516;SDS011;45342;42.662;27.718;2023-02-07T09:57:19;14.18;;;8.20;;
59516;SDS011;45342;42.662;27.718;2023-02-07T09:59:50;15.73;;;8.23;;
59516;SDS011;45342;42.662;27.718;2023-02-07T10:02:24;15.02;;;7.68;;
59516;SDS011;45342;42.662;27.718;2023-02-07T10:04:56;16.58;;;8.20;;
59516;SDS011;45342;42.662;27.718;2023-02-07T10:07:26;14.15;;;7.78;;
59516;SDS011;45342;42.662;27.718;2023-02-07T10:09:51;15.63;;;8.38;;
59516;SDS011;45342;42.662;27.718;2023-02-07T10:30:40;15.70;;;8.60;;
59516;SDS011;45342;42.662;27.718;2023-02-07T10:33:14;17.52;;;8.55;;
59516;SDS011;45342;42.662;27.718;2023-02-07T10:35:42;13.35;;;7.57;;
59516;SDS011;45342;42.662;27.718;2023-02-07T10:38:54;13.80;;;8.18;;
59516;SDS011;45342;42.662;27.718;2023-02-07T10:41:09;16.33;;;8.35;;
59516;SDS011;45342;42.662;27.718;2023-02-07T10:43:39;16.05;;;8.60;;
59516;SDS011;45342;42.662;27.718;2023-02-07T10:46:09;15.25;;;8.18;;
59516;SDS011;45342;42.662;27.718;2023-02-07T10:48:37;14.95;;;8.35;;
59516;SDS011;45342;42.662;27.718;2023-02-07T10:51:03;17.17;;;8.38;;
59516;SDS011;45342;42.662;27.718;2023-02-07T10:54:12;15.57;;;8.25;;
59516;SDS011;45342;42.662;27.718;2023-02-07T10:56:50;16.05;;;9.00;;
59516;SDS011;45342;42.662;27.718;2023-02-07T11:01:53;17.63;;;9.38;;
59516;SDS011;45342;42.662;27.718;2023-02-07T11:04:33;16.83;;;8.80;;
59516;SDS011;45342;42.662;27.718;2023-02-07T11:07:05;16.58;;;8.98;;
59516;SDS011;45342;42.662;27.718;2023-02-07T11:09:35;15.80;;;8.23;;
59516;SDS011;45342;42.662;27.718;2023-02-07T11:12:13;18.27;;;9.15;;
59516;SDS011;45342;42.662;27.718;2023-02-07T11:14:52;18.08;;;8.30;;
59516;SDS011;45342;42.662;27.718;2023-02-07T11:17:23;14.75;;;8.15;;
59516;SDS011;45342;42.662;27.718;2023-02-07T11:19:50;15.38;;;7.93;;
59516;SDS011;45342;42.662;27.718;2023-02-07T11:22:16;15.45;;;8.23;;
59516;SDS011;45342;42.662;27.718;2023-02-07T11:24:43;13.25;;;8.05;;
59516;SDS011;45342;42.662;27.718;2023-02-07T11:29:43;18.97;;;8.50;;
59516;SDS011;45342;42.662;27.718;2023-02-07T11:32:19;16.67;;;8.02;;
59516;SDS011;45342;42.662;27.718;2023-02-07T11:39:54;16.58;;;8.43;;
59516;SDS011;45342;42.662;27.718;2023-02-07T11:42:25;16.60;;;8.40;;
59516;SDS011;45342;42.662;27.718;2023-02-07T11:44:55;17.80;;;8.60;;
59516;SDS011;45342;42.662;27.718;2023-02-07T11:47:25;16.08;;;8.68;;
59516;SDS011;45342;42.662;27.718;2023-02-07T11:49:55;14.30;;;8.00;;
59516;SDS011;45342;42.662;27.718;2023-02-07T11:52:22;15.00;;;7.82;;
59516;SDS011;45342;42.662;27.718;2023-02-07T11:54:52;15.98;;;8.40;;
59516;SDS011;45342;42.662;27.718;2023-02-07T11:57:21;15.60;;;8.30;;
59516;SDS011;45342;42.662;27.718;2023-02-07T12:00:48;14.55;;;7.85;;
59516;SDS011;45342;42.662;27.718;2023-02-07T12:02:58;14.80;;;7.63;;
59516;SDS011;45342;42.662;27.718;2023-02-07T12:05:28;20.48;;;8.60;;
59516;SDS011;45342;42.662;27.718;2023-02-07T12:07:57;15.13;;;8.40;;
59516;SDS011;45342;42.662;27.718;2023-02-07T12:10:29;15.38;;;7.78;;
59516;SDS011;45342;42.662;27.718;2023-02-07T12:18:34;17.02;;;7.70;;
59516;SDS011;45342;42.662;27.718;2023-02-07T12:23:51;15.93;;;8.27;;
59516;SDS011;45342;42.662;27.718;2023-02-07T12:29:08;20.00;;;7.88;;
59516;SDS011;45342;42.662;27.718;2023-02-07T12:37:30;15.85;;;8.25;;
59516;SDS011;45342;42.662;27.718;2023-02-07T12:43:06;15.50;;;8.52;;
59516;SDS011;45342;42.662;27.718;2023-02-07T12:48:35;14.13;;;7.65;;
59516;SDS011;45342;42.662;27.718;2023-02-07T12:56:48;14.27;;;8.45;;
59516;SDS011;45342;42.662;27.718;2023-02-07T12:59:38;13.60;;;7.72;;
59516;SDS011;45342;42.662;27.718;2023-02-07T13:07:40;15.18;;;8.00;;
59516;SDS011;45342;42.662;27.718;2023-02-07T13:15:55;14.95;;;8.02;;
59516;SDS011;45342;42.662;27.718;2023-02-07T13:22:01;15.98;;;8.00;;
59516;SDS011;45342;42.662;27.718;2023-02-07T13:24:18;13.70;;;7.70;;
59516;SDS011;45342;42.662;27.718;2023-02-07T13:26:56;14.55;;;7.90;;
59516;SDS011;45342;42.662;27.718;2023-02-07T13:32:13;15.40;;;7.88;;
59516;SDS011;45342;42.662;27.718;2023-02-07T13:51:27;15.77;;;7.70;;
59516;SDS011;45342;42.662;27.718;2023-02-07T13:57:59;14.40;;;7.43;;
59516;SDS011;45342;42.662;27.718;2023-02-07T14:00:26;15.90;;;7.78;;
59516;SDS011;45342;42.662;27.718;2023-02-07T14:03:02;15.95;;;7.60;;
59516;SDS011;45342;42.662;27.718;2023-02-07T14:05:38;14.80;;;7.50;;
59516;SDS011;45342;42.662;27.718;2023-02-07T14:08:19;13.27;;;7.65;;
59516;SDS011;45342;42.662;27.718;2023-02-07T14:10:53;14.57;;;7.40;;
59516;SDS011;45342;42.662;27.718;2023-02-07T14:13:31;14.10;;;7.70;;
59516;SDS011;45342;42.662;27.718;2023-02-07T14:18:38;14.82;;;7.22;;
59516;SDS011;45342;42.662;27.718;2023-02-07T14:31:52;14.35;;;6.80;;
59516;SDS011;45342;42.662;27.718;2023-02-07T14:34:56;14.73;;;7.53;;
59516;SDS011;45342;42.662;27.718;2023-02-07T14:43:18;13.60;;;7.20;;
59516;SDS011;45342;42.662;27.718;2023-02-07T14:45:59;13.90;;;7.68;;
59516;SDS011;45342;42.662;27.718;2023-02-07T14:51:21;13.98;;;6.82;;
59516;SDS011;45342;42.662;27.718;2023-02-07T14:54:01;12.68;;;7.28;;
59516;SDS011;45342;42.662;27.718;2023-02-07T14:59:08;13.10;;;7.57;;
59516;SDS011;45342;42.662;27.718;2023-02-07T15:04:06;16.75;;;8.00;;
59516;SDS011;45342;42.662;27.718;2023-02-07T15:06:40;17.30;;;8.90;;
59516;SDS011;45342;42.662;27.718;2023-02-07T15:09:18;15.98;;;8.75;;
59516;SDS011;45342;42.662;27.718;2023-02-07T15:11:48;15.65;;;8.38;;
59516;SDS011;45342;42.662;27.718;2023-02-07T15:14:20;16.30;;;8.40;;
59516;SDS011;45342;42.662;27.718;2023-02-07T15:16:49;15.63;;;8.38;;
59516;SDS011;45342;42.662;27.718;2023-02-07T15:19:29;15.13;;;8.15;;
59516;SDS011;45342;42.662;27.718;2023-02-07T15:22:01;14.82;;;8.30;;
59516;SDS011;45342;42.662;27.718;2023-02-07T15:27:17;18.67;;;9.15;;
59516;SDS011;45342;42.662;27.718;2023-02-07T15:29:44;19.27;;;9.65;;
59516;SDS011;45342;42.662;27.718;2023-02-07T15:32:22;16.63;;;9.20;;
59516;SDS011;45342;42.662;27.718;2023-02-07T15:34:49;17.33;;;9.27;;
59516;SDS011;45342;42.662;27.718;2023-02-07T15:37:18;18.13;;;9.18;;
59516;SDS011;45342;42.662;27.718;2023-02-07T15:39:45;16.50;;;9.00;;
59516;SDS011;45342;42.662;27.718;2023-02-07T15:42:15;17.77;;;8.98;;
59516;SDS011;45342;42.662;27.718;2023-02-07T15:44:46;15.90;;;8.52;;
59516;SDS011;45342;42.662;27.718;2023-02-07T15:47:31;15.52;;;7.97;;
59516;SDS011;45342;42.662;27.718;2023-02-07T15:52:44;16.27;;;8.63;;
59516;SDS011;45342;42.662;27.718;2023-02-07T15:57:42;17.13;;;9.32;;
59516;SDS011;45342;42.662;27.718;2023-02-07T16:00:15;17.17;;;8.85;;
59516;SDS011;45342;42.662;27.718;2023-02-07T16:02:45;17.38;;;9.48;;
59516;SDS011;45342;42.662;27.718;2023-02-07T16:07:50;20.02;;;9.68;;
59516;SDS011;45342;42.662;27.718;2023-02-07T16:10:30;21.73;;;9.90;;
59516;SDS011;45342;42.662;27.718;2023-02-07T16:13:08;17.77;;;9.55;;
59516;SDS011;45342;42.662;27.718;2023-02-07T16:15:57;18.75;;;9.73;;
59516;SDS011;45342;42.662;27.718;2023-02-07T16:18:43;22.63;;;9.93;;
59516;SDS011;45342;42.662;27.718;2023-02-07T16:21:15;19.42;;;10.15;;
59516;SDS011;45342;42.662;27.718;2023-02-07T16:23:49;19.30;;;9.88;;
59516;SDS011;45342;42.662;27.718;2023-02-07T16:26:18;23.10;;;10.20;;
59516;SDS011;45342;42.662;27.718;2023-02-07T16:28:49;17.98;;;9.40;;
59516;SDS011;45342;42.662;27.718;2023-02-07T16:31:15;20.05;;;9.95;;
59516;SDS011;45342;42.662;27.718;2023-02-07T16:33:41;19.90;;;9.70;;
59516;SDS011;45342;42.662;27.718;2023-02-07T16:36:16;17.88;;;9.57;;
59516;SDS011;45342;42.662;27.718;2023-02-07T16:38:42;17.63;;;9.40;;
59516;SDS011;45342;42.662;27.718;2023-02-07T16:41:21;17.17;;;9.38;;
59516;SDS011;45342;42.662;27.718;2023-02-07T16:43:47;18.13;;;9.32;;
59516;SDS011;45342;42.662;27.718;2023-02-07T16:46:13;17.23;;;9.35;;
59516;SDS011;45342;42.662;27.718;2023-02-07T16:48:38;18.15;;;9.90;;
59516;SDS011;45342;42.662;27.718;2023-02-07T16:51:04;17.92;;;9.63;;
59516;SDS011;45342;42.662;27.718;2023-02-07T16:53:31;17.98;;;9.57;;
59516;SDS011;45342;42.662;27.718;2023-02-07T16:55:57;16.88;;;9.13;;
59516;SDS011;45342;42.662;27.718;2023-02-07T16:58:24;17.02;;;9.32;;
59516;SDS011;45342;42.662;27.718;2023-02-07T17:00:51;17.83;;;10.07;;
59516;SDS011;45342;42.662;27.718;2023-02-07T17:03:19;19.75;;;10.00;;
59516;SDS011;45342;42.662;27.718;2023-02-07T17:05:45;18.63;;;9.80;;
59516;SDS011;45342;42.662;27.718;2023-02-07T17:08:16;18.98;;;9.45;;
59516;SDS011;45342;42.662;27.718;2023-02-07T17:11:11;18.08;;;9.73;;
59516;SDS011;45342;42.662;27.718;2023-02-07T17:13:49;15.77;;;9.43;;
59516;SDS011;45342;42.662;27.718;2023-02-07T17:16:17;19.30;;;9.30;;
59516;SDS011;45342;42.662;27.718;2023-02-07T17:18:43;18.08;;;9.18;;
59516;SDS011;45342;42.662;27.718;2023-02-07T17:21:08;16.77;;;9.38;;
59516;SDS011;45342;42.662;27.718;2023-02-07T17:23:36;17.67;;;8.60;;
59516;SDS011;45342;42.662;27.718;2023-02-07T17:29:34;16.52;;;9.18;;
59516;SDS011;45342;42.662;27.718;2023-02-07T17:34:27;16.58;;;8.80;;
59516;SDS011;45342;42.662;27.718;2023-02-07T17:40:14;16.10;;;8.25;;
59516;SDS011;45342;42.662;27.718;2023-02-07T17:42:41;16.75;;;8.98;;
59516;SDS011;45342;42.662;27.718;2023-02-07T17:45:07;15.83;;;9.10;;
59516;SDS011;45342;42.662;27.718;2023-02-07T17:47:33;17.08;;;9.15;;
59516;SDS011;45342;42.662;27.718;2023-02-07T17:49:59;16.65;;;8.75;;
59516;SDS011;45342;42.662;27.718;2023-02-07T17:52:26;16.00;;;8.38;;
59516;SDS011;45342;42.662;27.718;2023-02-07T17:54:51;15.95;;;8.57;;
59516;SDS011;45342;42.662;27.718;2023-02-07T17:57:17;16.40;;;8.80;;
59516;SDS011;45342;42.662;27.718;2023-02-07T17:59:42;14.93;;;8.45;;
59516;SDS011;45342;42.662;27.718;2023-02-07T18:02:09;15.10;;;8.70;;